Terminal Aerodrome Forecast
Issued by NWS

Home | Current Version | Previous Version | Text Only | Print | Product List | Glossary On
Versions: 1 2 3 4 5 6 7 8 9 10 11 12
000
FTUS43 KBIS 221700
TAFDIK
TAF
KDIK 221738Z 2218/2318 27022G27KT P6SM SKC
     FM222300 26012KT P6SM FEW250
     FM231700 22008KT P6SM FEW250=

USA.gov is the U.S. government's official web portal to all federal, state and local government web resources and services.